Flight Track Log - Related Links

Times and Time Zones

All times are in EDT time to prevent confusion due to time zone crossing. See the SWA2274 flight status page for this flight to view local times or setup timezone preferences in your user account.

Time Position Orientation Groundspeed Altitude Reporting Facility
EDT Latitude Longitude Course Direction KTS MPH feet Rate Location/Type
Thu 10:52:37 AM 39.7833 -104.6500 245° Southwest 188 216 8,000  Level Denver TRACON
Thu 10:53:31 AM 39.7333 -104.6667 194° South 242 278 9,800 2,205 Climbing Denver TRACON
Thu 10:54:34 AM 39.6844 -104.7603 236° Southwest 294 338 12,300 2,400 Climbing Denver Center
Thu 10:55:36 AM 39.6728 -104.8819 263° West 334 384 14,800 2,592 Climbing Denver Center
Thu 10:56:39 AM 39.6503 -105.0058 257° West 352 405 17,700 2,832 Climbing Denver Center
Thu 10:57:41 AM 39.6286 -105.1467 259° West 367 422 20,700 2,516 Climbing Denver Center
Thu 10:58:00 AM 39.6053 -105.4354 245° Southwest  Level FlightAware Approximate
Thu 10:58:43 AM 39.6061 -105.2836 258° West 387 445 22,900  Level Denver Center
Thu 10:59:45 AM 39.5828 -105.4369 259° West 400 460 24,600 1,839 Climbing Denver Center
Thu 11:00:47 AM 39.5575 -105.5828 257° West 414 476 26,700 1,887 Climbing Denver Center
Thu 11:01:49 AM 39.5228 -105.7289 253° West 426 490 28,500 1,548 Climbing Denver Center
Thu 11:02:51 AM 39.4844 -105.8606 249° West 424 488 29,900 1,984 Climbing Denver Center
Thu 11:03:53 AM 39.4361 -106.0383 251° West 431 496 32,600 2,177 Climbing Denver Center
Thu 11:04:55 AM 39.3958 -106.1783 250° West 429 494 34,400 1,742 Climbing Denver Center
Thu 11:05:57 AM 39.3514 -106.3386 250° West 425 489 36,200 1,548 Climbing Denver Center
Thu 11:06:59 AM 39.3131 -106.4736 250° West 421 484 37,600 871 Climbing Denver Center
Thu 11:08:01 AM 39.2744 -106.6089 250° West 419 482 38,000 194 Climbing Denver Center
Thu 11:09:03 AM 39.2161 -106.7597 244° Southwest 422 486 38,000  Level Denver Center
Thu 11:10:05 AM 39.1450 -106.8725 231° Southwest 423 487 38,000  Level Denver Center
Thu 11:11:07 AM 39.0606 -107.0036 230° Southwest 424 488 38,000  Level Denver Center
Thu 11:12:09 AM 38.9892 -107.1153 231° Southwest 422 486 38,000  Level Denver Center
Thu 11:13:11 AM 38.9031 -107.2472 230° Southwest 430 495 38,000  Level Denver Center
Thu 11:14:13 AM 38.8308 -107.3578 230° Southwest 424 488 38,000  Level Denver Center
Thu 11:15:15 AM 38.7456 -107.4889 230° Southwest 428 493 38,000  Level Denver Center
Thu 11:16:17 AM 38.6725 -107.5997 230° Southwest 426 490 38,000  Level Denver Center
Thu 11:17:19 AM 38.5878 -107.7289 230° Southwest 423 487 38,000  Level Denver Center
Thu 11:18:21 AM 38.5167 -107.8378 230° Southwest 418 481 38,000  Level Denver Center
Thu 11:19:23 AM 38.4453 -107.9450 230° Southwest 415 478 38,000  Level Denver Center
Thu 11:20:25 AM 38.3611 -108.0719 230° Southwest 418 481 38,000  Level Denver Center
Thu 11:21:27 AM 38.2911 -108.1767 230° Southwest 411 473 38,000  Level Denver Center
Thu 11:22:29 AM 38.2089 -108.3011 230° Southwest 410 472 38,000  Level Denver Center
Thu 11:23:31 AM 38.1367 -108.4081 229° Southwest 413 475 38,000  Level Denver Center
Thu 11:24:33 AM 38.0539 -108.5308 229° Southwest 410 472 38,000  Level Denver Center
Thu 11:25:36 AM 37.9825 -108.6353 229° Southwest 409 471 38,000  Level Denver Center
Thu 11:26:38 AM 37.9003 -108.7561 229° Southwest 407 468 38,000  Level Denver Center
Thu 11:27:40 AM 37.8317 -108.8567 229° Southwest 399 459 38,000  Level Denver Center
Thu 11:28:42 AM 37.7494 -108.9750 229° Southwest 401 461 38,000  Level Denver Center
Thu 11:29:44 AM 37.6814 -109.0778 230° Southwest 399 459 38,000  Level Denver Center
Thu 11:30:46 AM 37.6100 -109.1786 228° Southwest 403 464 38,000  Level Denver Center
Thu 11:31:48 AM 37.5489 -109.3167 241° Southwest 405 466 38,000  Level Denver Center
Thu 11:32:50 AM 37.5061 -109.4419 247° West 406 467 38,000  Level Denver Center
Thu 11:33:52 AM 37.4564 -109.5864 247° West 405 466 38,000  Level Denver Center
Thu 11:35:06 AM 37.3981 -109.7519 246° West 405 466 38,000  Level Denver Center
Thu 11:36:08 AM 37.3539 -109.8775 246° West 408 470 38,000  Level Denver Center
Thu 11:37:10 AM 37.3039 -110.0239 247° West 409 471 38,000  Level Denver Center
Thu 11:38:12 AM 37.2614 -110.1456 246° West 402 463 38,000  Level Denver Center
Thu 11:39:15 AM 37.2186 -110.2664 246° West 397 457 38,000  Level Denver Center
Thu 11:40:17 AM 37.1739 -110.3906 246° West 393 452 38,000  Level Denver Center
Thu 11:41:19 AM 37.1211 -110.5406 246° West 392 451 38,000  Level Denver Center
Thu 11:42:21 AM 37.0747 -110.6656 245° Southwest 394 453 38,000  Level Denver Center
Thu 11:43:23 AM 37.0303 -110.7933 246° West 398 458 38,000  Level Denver Center
Thu 11:44:25 AM 36.9836 -110.9233 246° West 405 466 38,000  Level Denver Center
Thu 11:45:27 AM 36.9367 -111.0519 245° Southwest 407 468 38,000  Level Denver Center
Thu 11:46:29 AM 36.8903 -111.1797 246° West 406 467 38,000  Level Denver Center
Thu 11:47:31 AM 36.8372 -111.3317 246° West 402 463 38,000  Level Denver Center
Thu 11:48:33 AM 36.7908 -111.4583 245° Southwest 400 460 38,000  Level Denver Center
Thu 11:49:35 AM 36.7444 -111.5842 245° Southwest 400 460 38,000  Level Denver Center
Thu 11:50:15 AM 36.7117 -111.6636 243° Southwest 400 460 38,000  Level Los Angeles Center
Thu 11:51:17 AM 36.6661 -111.7881 246° West 397 457 38,000  Level Los Angeles Center
Thu 11:52:19 AM 36.6103 -111.9383 245° Southwest 397 457 38,000  Level Los Angeles Center
Thu 11:53:21 AM 36.5647 -112.0622 245° Southwest 396 456 38,000  Level Los Angeles Center
Thu 11:54:24 AM 36.5167 -112.1883 245° Southwest 399 459 38,000  Level Los Angeles Center
Thu 11:55:26 AM 36.4689 -112.3161 245° Southwest 405 466 38,000  Level Los Angeles Center
Thu 11:56:28 AM 36.4192 -112.4425 244° Southwest 406 467 38,000  Level Los Angeles Center
Thu 11:57:30 AM 36.3725 -112.5678 245° Southwest 401 461 38,000  Level Los Angeles Center
Thu 11:58:32 AM 36.3158 -112.7156 245° Southwest 397 457 38,000  Level Los Angeles Center
Thu 11:59:34 AM 36.2692 -112.8381 245° Southwest 394 453 38,000  Level Los Angeles Center
Thu 12:00:36 PM 36.2219 -112.9608 245° Southwest 393 452 38,000  Level Los Angeles Center
Thu 12:01:38 PM 36.1750 -113.0822 244° Southwest 392 451 38,000  Level Los Angeles Center
Thu 12:02:41 PM 36.1267 -113.2064 244° Southwest 398 458 38,000  Level Los Angeles Center
Thu 12:03:43 PM 36.0803 -113.3289 245° Southwest 399 459 38,000  Level Los Angeles Center
Thu 12:04:45 PM 36.0217 -113.4758 244° Southwest 397 457 38,000  Level Los Angeles Center
Thu 12:05:47 PM 35.9731 -113.5986 244° Southwest 398 458 38,000  Level Los Angeles Center
Thu 12:06:49 PM 35.9244 -113.7225 244° Southwest 400 460 38,000  Level Los Angeles Center
Thu 12:07:51 PM 35.8764 -113.8464 244° Southwest 400 460 38,000  Level Los Angeles Center
Thu 12:08:53 PM 35.8275 -113.9703 244° Southwest 401 461 38,000  Level Los Angeles Center
Thu 12:09:55 PM 35.7775 -114.0944 244° Southwest 402 463 38,000  Level Los Angeles Center
Thu 12:10:58 PM 35.7172 -114.2419 243° Southwest 402 463 38,000  Level Los Angeles Center
Thu 12:12:00 PM 35.6683 -114.3647 244° Southwest 400 460 38,000  Level Los Angeles Center
Thu 12:13:02 PM 35.6194 -114.4858 244° Southwest 397 457 38,000  Level Los Angeles Center
Thu 12:14:04 PM 35.5706 -114.6083 244° Southwest 398 458 38,000 -145 Level Los Angeles Center
Thu 12:15:06 PM 35.5214 -114.7300 244° Southwest 398 458 37,700 -1,355 Descending Los Angeles Center
Thu 12:16:08 PM 35.4717 -114.8514 243° Southwest 396 456 35,200 -1,790 Descending Los Angeles Center
Thu 12:17:10 PM 35.4219 -114.9744 244° Southwest 400 460 34,000 -581 Descending Los Angeles Center
Thu 12:18:12 PM 35.3628 -115.1194 243° Southwest 399 459 34,000  Level Los Angeles Center
Thu 12:19:15 PM 35.3144 -115.2364 243° Southwest 392 451 34,000  Level Los Angeles Center
Thu 12:20:17 PM 35.2647 -115.3550 243° Southwest 391 450 34,000  Level Los Angeles Center
Thu 12:21:19 PM 35.2153 -115.4758 243° Southwest 396 456 34,000  Level Los Angeles Center
Thu 12:22:22 PM 35.1675 -115.5906 243° Southwest 396 456 34,000  Level Los Angeles Center
Thu 12:23:23 PM 35.1164 -115.7103 242° Southwest 397 457 34,000  Level Los Angeles Center
Thu 12:24:25 PM 35.0572 -115.8528 243° Southwest 394 453 34,000  Level Los Angeles Center
Thu 12:25:27 PM 35.0064 -115.9725 243° Southwest 395 455 34,000 -677 Level Los Angeles Center
Thu 12:26:29 PM 34.9575 -116.0903 243° Southwest 391 450 32,600 -1,645 Descending Los Angeles Center
Thu 12:27:31 PM 34.9083 -116.2033 242° Southwest 382 440 30,600 -1,968 Descending Los Angeles Center
Thu 12:28:34 PM 34.8600 -116.3133 242° Southwest 371 427 28,500 -1,872 Descending Los Angeles Center
Thu 12:29:36 PM 34.8153 -116.4197 243° Southwest 358 412 26,700 -1,403 Descending Los Angeles Center
Thu 12:30:38 PM 34.7872 -116.5567 256° West 356 410 25,600 -1,065 Descending Los Angeles Center
Thu 12:31:40 PM 34.7764 -116.6731 264° West 350 403 24,500 -1,016 Descending Los Angeles Center
Thu 12:32:42 PM 34.7650 -116.7869 263° West 343 395 23,500 -968 Descending Los Angeles Center
Thu 12:33:44 PM 34.7533 -116.8983 263° West 336 387 22,500 -968 Descending Los Angeles Center
Thu 12:34:46 PM 34.7419 -117.0100 263° West 334 384 21,500 -968 Descending Los Angeles Center
Thu 12:35:48 PM 34.7319 -117.1206 264° West 330 380 20,500 -1,065 Descending Los Angeles Center
Thu 12:36:50 PM 34.7167 -117.2508 262° West 327 376 19,300 -1,065 Descending Los Angeles Center
Thu 12:37:52 PM 34.7064 -117.3578 263° West 320 368 18,300 -1,016 Descending Los Angeles Center
Thu 12:38:54 PM 34.6950 -117.4636 263° West 316 364 17,200 -1,016 Descending Los Angeles Center
Thu 12:39:56 PM 34.6842 -117.5689 263° West 314 361 16,200 -968 Descending Los Angeles Center
Thu 12:40:58 PM 34.6728 -117.6731 262° West 311 358 15,200 -968 Descending Los Angeles Center
Thu 12:42:00 PM 34.6583 -117.7742 260° West 304 350 14,200 -1,002 Descending Los Angeles Center
Thu 12:43:00 PM 34.6441 -117.9030 262° West  Level FlightAware Approximate
Thu 12:48:03 PM 34.5667 -118.3500 90° East 272 313 8,100  Level Southern California TRACON
Thu 12:49:03 PM 34.5500 -118.4333 256° West 259 298 8,100 -105 Level Southern California TRACON
Thu 12:49:57 PM 34.5167 -118.5000 239° Southwest 268 308 7,900 -632 Descending Southern California TRACON
Thu 12:50:00 PM 34.2007 -118.3587 165° South  Level Estimated
Thu 12:50:57 PM 34.4667 -118.5667 228° Southwest 250 288 6,900  Level Southern California TRACON
Thu 12:51:00 PM 34.2007 -118.3587 180° South  Level Estimated
Thu 12:51:51 PM 34.4167 -118.6000 209° Southwest 242 278 5,900  Level Southern California TRACON
Thu 12:52:00 PM 34.2007 -118.3587 90° East  Level Estimated
Thu 12:52:51 PM 34.3500 -118.6333 202° Southwest 241 277 5,000  Level Southern California TRACON
Thu 12:53:00 PM 34.2000 -118.3500 90° East  Level FlightAware Approximate
Thu 12:53:51 PM 34.3000 -118.6000 151° Southeast 183 211 5,000  Level Southern California TRACON
Thu 12:54:51 PM 34.2667 -118.5833 158° South 182 209 4,700 -600 Descending Southern California TRACON
Thu 12:55:51 PM 34.2167 -118.5667 165° South 184 212 3,800 -850 Descending Southern California TRACON
Thu 12:56:51 PM 34.2000 -118.5000 107° East 161 185 3,000 -800 Descending Southern California TRACON
Thu 12:57:51 PM 34.2000 -118.4500 90° East 157 181 2,200 -789 Descending Southern California TRACON
Thu 12:58:45 PM 34.2000 -118.4167 90° East 140 161 1,500 -778 Descending Southern California TRACON
Thu 01:00:00 PM 34.2000 -118.3500 90° East  Level FlightAware Approximate

Login

Don't have an account? Register now (free) for customized features, flight alerts, and more!